Bethlehem, Kentucky
Current Conditions -  °F | °C
As of 7:53 PM on Friday 24 Oct 2014 (Local Time) from KFFT Reporting Station
Clear Clear  
Wind Chill: 51°   Ceiling: Unl
Heat Index: 51°   Visibility: 10mi
Dew Point: 42°   Wind: 5mph
Humidity: 71%   Direction: 260°W
Pressure: 30.06"   Gusts: NA
Location:  38.4°N, 85.07°W
Report Text: KFFT 242353Z AUTO 26004KT 10SM CLR 11/06 A3006 RMK AO2 SLP181 T01060056 10178 20106 53003
Loading
Personal Weather Stations






























Interactive Weather Map
Tropical Storm Tracking
New forecast layout! Learn more

10-Day Weather Forecast

Advertisements
Track Severe Weather on mobile